sensor_id;sensor_type;location;lat;lon;timestamp;temperature;humidity
16301;DHT22;8258;51.020;4.248;2023-04-24T00:00:15;9.50;99.90
16301;DHT22;8258;51.020;4.248;2023-04-24T00:02:45;9.50;99.90
16301;DHT22;8258;51.020;4.248;2023-04-24T00:05:13;9.50;99.90
16301;DHT22;8258;51.020;4.248;2023-04-24T00:07:41;9.60;99.90
16301;DHT22;8258;51.020;4.248;2023-04-24T00:10:08;9.50;99.90
16301;DHT22;8258;51.020;4.248;2023-04-24T00:12:36;9.50;99.90
16301;DHT22;8258;51.020;4.248;2023-04-24T00:15:03;9.50;99.90
16301;DHT22;8258;51.020;4.248;2023-04-24T00:17:31;9.60;99.90
16301;DHT22;8258;51.020;4.248;2023-04-24T00:19:59;9.50;99.90
16301;DHT22;8258;51.020;4.248;2023-04-24T00:22:28;9.50;99.90
16301;DHT22;8258;51.020;4.248;2023-04-24T00:24:55;9.50;99.90
16301;DHT22;8258;51.020;4.248;2023-04-24T00:27:22;9.50;99.90
16301;DHT22;8258;51.020;4.248;2023-04-24T00:29:49;9.50;99.90
16301;DHT22;8258;51.020;4.248;2023-04-24T00:32:16;9.40;99.90
16301;DHT22;8258;51.020;4.248;2023-04-24T00:34:44;9.30;99.90
16301;DHT22;8258;51.020;4.248;2023-04-24T00:37:12;9.30;99.90
16301;DHT22;8258;51.020;4.248;2023-04-24T00:39:39;9.30;99.90
16301;DHT22;8258;51.020;4.248;2023-04-24T00:42:06;9.30;99.90
16301;DHT22;8258;51.020;4.248;2023-04-24T00:44:33;9.30;99.90
16301;DHT22;8258;51.020;4.248;2023-04-24T00:47:00;9.30;99.90
16301;DHT22;8258;51.020;4.248;2023-04-24T00:49:27;9.40;99.90
16301;DHT22;8258;51.020;4.248;2023-04-24T00:51:55;9.40;99.90
16301;DHT22;8258;51.020;4.248;2023-04-24T00:54:23;9.30;99.90
16301;DHT22;8258;51.020;4.248;2023-04-24T00:56:51;9.40;99.90
16301;DHT22;8258;51.020;4.248;2023-04-24T00:59:18;9.40;99.90
16301;DHT22;8258;51.020;4.248;2023-04-24T01:01:45;9.40;99.90
16301;DHT22;8258;51.020;4.248;2023-04-24T01:04:13;9.40;99.90
16301;DHT22;8258;51.020;4.248;2023-04-24T01:06:42;9.40;99.90
16301;DHT22;8258;51.020;4.248;2023-04-24T01:09:10;9.40;99.90
16301;DHT22;8258;51.020;4.248;2023-04-24T01:11:41;9.40;99.90
16301;DHT22;8258;51.020;4.248;2023-04-24T01:14:08;9.40;99.90
16301;DHT22;8258;51.020;4.248;2023-04-24T01:16:36;9.40;99.90
16301;DHT22;8258;51.020;4.248;2023-04-24T01:19:04;9.40;99.90
16301;DHT22;8258;51.020;4.248;2023-04-24T01:21:35;9.40;99.90
16301;DHT22;8258;51.020;4.248;2023-04-24T01:24:05;9.40;99.90
16301;DHT22;8258;51.020;4.248;2023-04-24T01:26:32;9.30;99.90
16301;DHT22;8258;51.020;4.248;2023-04-24T01:29:00;9.30;99.90
16301;DHT22;8258;51.020;4.248;2023-04-24T01:31:27;9.30;99.90
16301;DHT22;8258;51.020;4.248;2023-04-24T01:33:54;9.20;99.90
16301;DHT22;8258;51.020;4.248;2023-04-24T01:36:22;9.20;99.90
16301;DHT22;8258;51.020;4.248;2023-04-24T01:38:51;9.20;99.90
16301;DHT22;8258;51.020;4.248;2023-04-24T01:41:19;9.20;99.90
16301;DHT22;8258;51.020;4.248;2023-04-24T01:43:47;9.20;99.90
16301;DHT22;8258;51.020;4.248;2023-04-24T01:46:15;9.20;99.90
16301;DHT22;8258;51.020;4.248;2023-04-24T01:48:42;9.20;99.90
16301;DHT22;8258;51.020;4.248;2023-04-24T01:51:09;9.20;99.90
16301;DHT22;8258;51.020;4.248;2023-04-24T01:53:36;9.10;99.90
16301;DHT22;8258;51.020;4.248;2023-04-24T01:56:04;9.00;99.90
16301;DHT22;8258;51.020;4.248;2023-04-24T01:58:32;8.90;99.90
16301;DHT22;8258;51.020;4.248;2023-04-24T02:00:59;8.80;99.90
16301;DHT22;8258;51.020;4.248;2023-04-24T02:03:26;8.70;99.90
16301;DHT22;8258;51.020;4.248;2023-04-24T02:05:53;8.70;99.90
16301;DHT22;8258;51.020;4.248;2023-04-24T02:08:20;8.60;99.90
16301;DHT22;8258;51.020;4.248;2023-04-24T02:10:47;8.60;99.90
16301;DHT22;8258;51.020;4.248;2023-04-24T02:13:14;8.40;99.90
16301;DHT22;8258;51.020;4.248;2023-04-24T02:15:43;8.40;99.90
16301;DHT22;8258;51.020;4.248;2023-04-24T02:18:10;8.40;99.90
16301;DHT22;8258;51.020;4.248;2023-04-24T02:20:38;8.40;99.90
16301;DHT22;8258;51.020;4.248;2023-04-24T02:23:05;8.30;99.90
16301;DHT22;8258;51.020;4.248;2023-04-24T02:25:33;8.30;99.90
16301;DHT22;8258;51.020;4.248;2023-04-24T02:28:00;8.30;99.90
16301;DHT22;8258;51.020;4.248;2023-04-24T02:30:27;8.30;99.90
16301;DHT22;8258;51.020;4.248;2023-04-24T02:32:56;8.30;99.90
16301;DHT22;8258;51.020;4.248;2023-04-24T02:35:23;8.40;99.90
16301;DHT22;8258;51.020;4.248;2023-04-24T02:37:50;8.30;99.90
16301;DHT22;8258;51.020;4.248;2023-04-24T02:40:17;8.40;99.90
16301;DHT22;8258;51.020;4.248;2023-04-24T02:42:44;8.30;99.90
16301;DHT22;8258;51.020;4.248;2023-04-24T02:45:11;8.30;99.90
16301;DHT22;8258;51.020;4.248;2023-04-24T02:47:38;8.40;99.90
16301;DHT22;8258;51.020;4.248;2023-04-24T02:50:09;8.40;99.90
16301;DHT22;8258;51.020;4.248;2023-04-24T02:52:36;8.40;99.90
16301;DHT22;8258;51.020;4.248;2023-04-24T02:55:04;8.40;99.90
16301;DHT22;8258;51.020;4.248;2023-04-24T02:57:31;8.40;99.90
16301;DHT22;8258;51.020;4.248;2023-04-24T02:59:58;8.40;99.90
16301;DHT22;8258;51.020;4.248;2023-04-24T03:02:25;8.40;99.90
16301;DHT22;8258;51.020;4.248;2023-04-24T03:04:52;8.50;99.90
16301;DHT22;8258;51.020;4.248;2023-04-24T03:07:20;8.50;99.90
16301;DHT22;8258;51.020;4.248;2023-04-24T03:09:47;8.50;99.90
16301;DHT22;8258;51.020;4.248;2023-04-24T03:12:14;8.50;99.90
16301;DHT22;8258;51.020;4.248;2023-04-24T03:14:43;8.50;99.90
16301;DHT22;8258;51.020;4.248;2023-04-24T03:17:10;8.40;99.90
16301;DHT22;8258;51.020;4.248;2023-04-24T03:19:37;8.40;99.90
16301;DHT22;8258;51.020;4.248;2023-04-24T03:22:04;8.40;99.90
16301;DHT22;8258;51.020;4.248;2023-04-24T03:24:32;8.40;99.90
16301;DHT22;8258;51.020;4.248;2023-04-24T03:26:59;8.40;99.90
16301;DHT22;8258;51.020;4.248;2023-04-24T03:29:26;8.40;99.90
16301;DHT22;8258;51.020;4.248;2023-04-24T03:31:53;8.40;99.90
16301;DHT22;8258;51.020;4.248;2023-04-24T03:34:20;8.40;99.90
16301;DHT22;8258;51.020;4.248;2023-04-24T03:36:47;8.40;99.90
16301;DHT22;8258;51.020;4.248;2023-04-24T03:39:14;8.40;99.90
16301;DHT22;8258;51.020;4.248;2023-04-24T03:41:42;8.40;99.90
16301;DHT22;8258;51.020;4.248;2023-04-24T03:44:09;8.50;99.90
16301;DHT22;8258;51.020;4.248;2023-04-24T03:46:36;8.40;99.90
16301;DHT22;8258;51.020;4.248;2023-04-24T03:49:03;8.40;99.90
16301;DHT22;8258;51.020;4.248;2023-04-24T03:51:30;8.40;99.90
16301;DHT22;8258;51.020;4.248;2023-04-24T03:53:57;8.40;99.90
16301;DHT22;8258;51.020;4.248;2023-04-24T03:56:24;8.50;99.90
16301;DHT22;8258;51.020;4.248;2023-04-24T03:58:52;8.50;99.90
16301;DHT22;8258;51.020;4.248;2023-04-24T04:01:19;8.50;99.90
16301;DHT22;8258;51.020;4.248;2023-04-24T04:03:47;8.50;99.90
16301;DHT22;8258;51.020;4.248;2023-04-24T04:06:14;8.50;99.90
16301;DHT22;8258;51.020;4.248;2023-04-24T04:08:41;8.50;99.90
16301;DHT22;8258;51.020;4.248;2023-04-24T04:11:08;8.40;99.90
16301;DHT22;8258;51.020;4.248;2023-04-24T04:13:35;8.40;99.90
16301;DHT22;8258;51.020;4.248;2023-04-24T04:16:03;8.40;99.90
16301;DHT22;8258;51.020;4.248;2023-04-24T04:18:30;8.40;99.90
16301;DHT22;8258;51.020;4.248;2023-04-24T04:20:57;8.40;99.90
16301;DHT22;8258;51.020;4.248;2023-04-24T04:23:26;8.40;99.90
16301;DHT22;8258;51.020;4.248;2023-04-24T04:25:53;8.40;99.90
16301;DHT22;8258;51.020;4.248;2023-04-24T04:28:20;8.50;99.90
16301;DHT22;8258;51.020;4.248;2023-04-24T04:30:47;8.50;99.90
16301;DHT22;8258;51.020;4.248;2023-04-24T04:33:16;8.40;99.90
16301;DHT22;8258;51.020;4.248;2023-04-24T04:35:43;8.40;99.90
16301;DHT22;8258;51.020;4.248;2023-04-24T04:38:14;8.40;99.90
16301;DHT22;8258;51.020;4.248;2023-04-24T04:40:42;8.40;99.90
16301;DHT22;8258;51.020;4.248;2023-04-24T04:43:09;8.40;99.90
16301;DHT22;8258;51.020;4.248;2023-04-24T04:45:36;8.40;99.90
16301;DHT22;8258;51.020;4.248;2023-04-24T04:48:04;8.30;99.90
16301;DHT22;8258;51.020;4.248;2023-04-24T04:50:34;8.30;99.90
16301;DHT22;8258;51.020;4.248;2023-04-24T04:53:01;8.40;99.90
16301;DHT22;8258;51.020;4.248;2023-04-24T04:55:28;8.30;99.90
16301;DHT22;8258;51.020;4.248;2023-04-24T04:57:55;8.30;99.90
16301;DHT22;8258;51.020;4.248;2023-04-24T05:00:23;8.30;99.90
16301;DHT22;8258;51.020;4.248;2023-04-24T05:02:50;8.20;99.90
16301;DHT22;8258;51.020;4.248;2023-04-24T05:05:18;8.20;99.90
16301;DHT22;8258;51.020;4.248;2023-04-24T05:07:46;8.20;99.90
16301;DHT22;8258;51.020;4.248;2023-04-24T05:10:13;8.20;99.90
16301;DHT22;8258;51.020;4.248;2023-04-24T05:12:40;8.20;99.90
16301;DHT22;8258;51.020;4.248;2023-04-24T05:15:08;8.20;99.90
16301;DHT22;8258;51.020;4.248;2023-04-24T05:17:35;8.20;99.90
16301;DHT22;8258;51.020;4.248;2023-04-24T05:20:02;8.20;99.90
16301;DHT22;8258;51.020;4.248;2023-04-24T05:22:30;8.20;99.90
16301;DHT22;8258;51.020;4.248;2023-04-24T05:24:59;8.30;99.90
16301;DHT22;8258;51.020;4.248;2023-04-24T05:27:26;8.30;99.90
16301;DHT22;8258;51.020;4.248;2023-04-24T05:29:52;8.30;99.90
16301;DHT22;8258;51.020;4.248;2023-04-24T05:32:20;8.30;99.90
16301;DHT22;8258;51.020;4.248;2023-04-24T05:34:46;8.30;99.90
16301;DHT22;8258;51.020;4.248;2023-04-24T05:37:13;8.30;99.90
16301;DHT22;8258;51.020;4.248;2023-04-24T05:39:40;8.30;99.90
16301;DHT22;8258;51.020;4.248;2023-04-24T05:42:09;8.30;99.90
16301;DHT22;8258;51.020;4.248;2023-04-24T05:44:36;8.30;99.90
16301;DHT22;8258;51.020;4.248;2023-04-24T05:47:03;8.30;99.90
16301;DHT22;8258;51.020;4.248;2023-04-24T05:49:30;8.30;99.90
16301;DHT22;8258;51.020;4.248;2023-04-24T05:51:57;8.30;99.90
16301;DHT22;8258;51.020;4.248;2023-04-24T05:54:24;8.30;99.90
16301;DHT22;8258;51.020;4.248;2023-04-24T05:56:51;8.20;99.90
16301;DHT22;8258;51.020;4.248;2023-04-24T05:59:21;8.20;99.90
16301;DHT22;8258;51.020;4.248;2023-04-24T06:01:48;8.30;99.90
16301;DHT22;8258;51.020;4.248;2023-04-24T06:04:15;8.30;99.90
16301;DHT22;8258;51.020;4.248;2023-04-24T06:06:42;8.30;99.90
16301;DHT22;8258;51.020;4.248;2023-04-24T06:09:09;8.30;99.90
16301;DHT22;8258;51.020;4.248;2023-04-24T06:11:36;8.30;99.90
16301;DHT22;8258;51.020;4.248;2023-04-24T06:14:03;8.30;99.90
16301;DHT22;8258;51.020;4.248;2023-04-24T06:16:31;8.40;99.90
16301;DHT22;8258;51.020;4.248;2023-04-24T06:18:58;8.40;99.90
16301;DHT22;8258;51.020;4.248;2023-04-24T06:21:25;8.40;99.90
16301;DHT22;8258;51.020;4.248;2023-04-24T06:23:53;8.40;99.90
16301;DHT22;8258;51.020;4.248;2023-04-24T06:26:21;8.50;99.90
16301;DHT22;8258;51.020;4.248;2023-04-24T06:28:50;8.50;99.90
16301;DHT22;8258;51.020;4.248;2023-04-24T06:31:17;8.50;99.90
16301;DHT22;8258;51.020;4.248;2023-04-24T06:33:45;8.50;99.90
16301;DHT22;8258;51.020;4.248;2023-04-24T06:36:13;8.40;99.90
16301;DHT22;8258;51.020;4.248;2023-04-24T06:38:40;8.50;99.90
16301;DHT22;8258;51.020;4.248;2023-04-24T06:41:07;8.50;99.90
16301;DHT22;8258;51.020;4.248;2023-04-24T06:43:34;8.60;99.90
16301;DHT22;8258;51.020;4.248;2023-04-24T06:46:01;8.60;99.90
16301;DHT22;8258;51.020;4.248;2023-04-24T06:48:29;8.60;99.90
16301;DHT22;8258;51.020;4.248;2023-04-24T06:50:57;8.60;99.90
16301;DHT22;8258;51.020;4.248;2023-04-24T06:53:24;8.60;99.90
16301;DHT22;8258;51.020;4.248;2023-04-24T06:55:51;8.60;99.90
16301;DHT22;8258;51.020;4.248;2023-04-24T06:58:18;8.60;99.90
16301;DHT22;8258;51.020;4.248;2023-04-24T07:00:45;8.70;99.90
16301;DHT22;8258;51.020;4.248;2023-04-24T07:03:12;8.70;99.90
16301;DHT22;8258;51.020;4.248;2023-04-24T07:05:39;8.80;99.90
16301;DHT22;8258;51.020;4.248;2023-04-24T07:08:08;8.90;99.90
16301;DHT22;8258;51.020;4.248;2023-04-24T07:10:37;9.00;99.90
16301;DHT22;8258;51.020;4.248;2023-04-24T07:13:04;9.10;99.90
16301;DHT22;8258;51.020;4.248;2023-04-24T07:15:32;9.20;99.90
16301;DHT22;8258;51.020;4.248;2023-04-24T07:17:59;9.30;99.90
16301;DHT22;8258;51.020;4.248;2023-04-24T07:20:26;9.40;99.90
16301;DHT22;8258;51.020;4.248;2023-04-24T07:22:53;9.40;99.90
16301;DHT22;8258;51.020;4.248;2023-04-24T07:25:21;9.50;99.90
16301;DHT22;8258;51.020;4.248;2023-04-24T07:27:48;9.50;99.90
16301;DHT22;8258;51.020;4.248;2023-04-24T07:30:16;9.60;99.90
16301;DHT22;8258;51.020;4.248;2023-04-24T07:32:43;9.70;99.90
16301;DHT22;8258;51.020;4.248;2023-04-24T07:35:09;9.80;99.90
16301;DHT22;8258;51.020;4.248;2023-04-24T07:37:37;10.00;99.90
16301;DHT22;8258;51.020;4.248;2023-04-24T07:40:04;10.10;99.90
16301;DHT22;8258;51.020;4.248;2023-04-24T07:42:33;10.30;99.90
16301;DHT22;8258;51.020;4.248;2023-04-24T07:45:02;10.20;99.90
16301;DHT22;8258;51.020;4.248;2023-04-24T07:47:28;10.10;99.90
16301;DHT22;8258;51.020;4.248;2023-04-24T07:49:55;10.10;99.90
16301;DHT22;8258;51.020;4.248;2023-04-24T07:52:23;10.00;99.90
16301;DHT22;8258;51.020;4.248;2023-04-24T07:54:50;9.90;99.90
16301;DHT22;8258;51.020;4.248;2023-04-24T07:57:24;10.00;99.90
16301;DHT22;8258;51.020;4.248;2023-04-24T07:59:52;10.00;99.90
16301;DHT22;8258;51.020;4.248;2023-04-24T08:02:19;10.20;99.90
16301;DHT22;8258;51.020;4.248;2023-04-24T08:04:47;10.30;99.90
16301;DHT22;8258;51.020;4.248;2023-04-24T08:07:14;10.80;99.90
16301;DHT22;8258;51.020;4.248;2023-04-24T08:09:41;12.10;99.90
16301;DHT22;8258;51.020;4.248;2023-04-24T08:12:08;13.30;99.90
16301;DHT22;8258;51.020;4.248;2023-04-24T08:14:35;14.30;99.90
16301;DHT22;8258;51.020;4.248;2023-04-24T08:17:03;14.10;99.90
16301;DHT22;8258;51.020;4.248;2023-04-24T08:19:30;14.30;99.90
16301;DHT22;8258;51.020;4.248;2023-04-24T08:21:57;14.00;99.90
16301;DHT22;8258;51.020;4.248;2023-04-24T08:24:24;14.80;99.90
16301;DHT22;8258;51.020;4.248;2023-04-24T08:26:51;14.30;99.90
16301;DHT22;8258;51.020;4.248;2023-04-24T08:29:19;13.00;99.90
16301;DHT22;8258;51.020;4.248;2023-04-24T08:31:47;11.90;99.90
16301;DHT22;8258;51.020;4.248;2023-04-24T08:34:15;11.70;99.90
16301;DHT22;8258;51.020;4.248;2023-04-24T08:36:43;11.30;99.90
16301;DHT22;8258;51.020;4.248;2023-04-24T08:39:10;11.00;99.90
16301;DHT22;8258;51.020;4.248;2023-04-24T08:41:37;10.60;99.90
16301;DHT22;8258;51.020;4.248;2023-04-24T08:44:04;10.60;99.90
16301;DHT22;8258;51.020;4.248;2023-04-24T08:46:33;10.50;99.90
16301;DHT22;8258;51.020;4.248;2023-04-24T08:49:00;10.60;99.90
16301;DHT22;8258;51.020;4.248;2023-04-24T08:51:29;10.50;99.90
16301;DHT22;8258;51.020;4.248;2023-04-24T08:53:57;11.20;99.90
16301;DHT22;8258;51.020;4.248;2023-04-24T08:56:25;13.00;99.90
16301;DHT22;8258;51.020;4.248;2023-04-24T08:58:53;14.90;99.90
16301;DHT22;8258;51.020;4.248;2023-04-24T09:01:20;16.50;99.90
16301;DHT22;8258;51.020;4.248;2023-04-24T09:03:48;16.40;99.90
16301;DHT22;8258;51.020;4.248;2023-04-24T09:06:17;14.90;99.90
16301;DHT22;8258;51.020;4.248;2023-04-24T09:08:47;13.90;99.90
16301;DHT22;8258;51.020;4.248;2023-04-24T09:11:16;13.50;99.90
16301;DHT22;8258;51.020;4.248;2023-04-24T09:13:43;12.80;99.90
16301;DHT22;8258;51.020;4.248;2023-04-24T09:16:10;12.40;99.90
16301;DHT22;8258;51.020;4.248;2023-04-24T09:18:38;12.60;99.90
16301;DHT22;8258;51.020;4.248;2023-04-24T09:21:07;13.30;99.90
16301;DHT22;8258;51.020;4.248;2023-04-24T09:23:35;13.00;99.90
16301;DHT22;8258;51.020;4.248;2023-04-24T09:26:03;12.40;99.90
16301;DHT22;8258;51.020;4.248;2023-04-24T09:28:32;12.10;99.90
16301;DHT22;8258;51.020;4.248;2023-04-24T09:31:06;13.00;99.90
16301;DHT22;8258;51.020;4.248;2023-04-24T09:33:33;13.20;99.90
16301;DHT22;8258;51.020;4.248;2023-04-24T09:36:00;13.00;99.90
16301;DHT22;8258;51.020;4.248;2023-04-24T09:38:32;12.70;99.90
16301;DHT22;8258;51.020;4.248;2023-04-24T09:41:00;12.20;99.90
16301;DHT22;8258;51.020;4.248;2023-04-24T09:43:30;11.70;99.90
16301;DHT22;8258;51.020;4.248;2023-04-24T09:45:58;11.50;99.90
16301;DHT22;8258;51.020;4.248;2023-04-24T09:48:33;11.70;99.90
16301;DHT22;8258;51.020;4.248;2023-04-24T09:51:02;12.20;99.90
16301;DHT22;8258;51.020;4.248;2023-04-24T09:53:30;12.50;99.90
16301;DHT22;8258;51.020;4.248;2023-04-24T09:56:02;12.20;99.90
16301;DHT22;8258;51.020;4.248;2023-04-24T09:58:31;12.10;99.90
16301;DHT22;8258;51.020;4.248;2023-04-24T10:00:58;11.90;99.90
16301;DHT22;8258;51.020;4.248;2023-04-24T10:03:25;11.60;99.90
16301;DHT22;8258;51.020;4.248;2023-04-24T10:05:53;11.40;99.90
16301;DHT22;8258;51.020;4.248;2023-04-24T10:08:20;11.40;99.90
16301;DHT22;8258;51.020;4.248;2023-04-24T10:10:48;11.30;99.90
16301;DHT22;8258;51.020;4.248;2023-04-24T10:13:15;11.90;99.90
16301;DHT22;8258;51.020;4.248;2023-04-24T10:15:44;12.00;99.90
16301;DHT22;8258;51.020;4.248;2023-04-24T10:18:11;12.00;99.90
16301;DHT22;8258;51.020;4.248;2023-04-24T10:20:40;12.00;99.90
16301;DHT22;8258;51.020;4.248;2023-04-24T10:23:07;12.00;99.90
16301;DHT22;8258;51.020;4.248;2023-04-24T10:25:35;12.10;99.90
16301;DHT22;8258;51.020;4.248;2023-04-24T10:28:03;12.40;99.90
16301;DHT22;8258;51.020;4.248;2023-04-24T10:30:33;12.30;99.90
16301;DHT22;8258;51.020;4.248;2023-04-24T10:33:03;13.00;99.90
16301;DHT22;8258;51.020;4.248;2023-04-24T10:35:31;13.20;99.90
16301;DHT22;8258;51.020;4.248;2023-04-24T10:38:02;13.10;99.90
16301;DHT22;8258;51.020;4.248;2023-04-24T10:40:32;12.80;99.90
16301;DHT22;8258;51.020;4.248;2023-04-24T10:43:01;13.10;99.90
16301;DHT22;8258;51.020;4.248;2023-04-24T10:45:31;14.10;99.90
16301;DHT22;8258;51.020;4.248;2023-04-24T10:47:58;14.80;99.90
16301;DHT22;8258;51.020;4.248;2023-04-24T10:50:29;15.00;99.90
16301;DHT22;8258;51.020;4.248;2023-04-24T10:53:06;14.80;99.90
16301;DHT22;8258;51.020;4.248;2023-04-24T10:55:44;14.40;99.90
16301;DHT22;8258;51.020;4.248;2023-04-24T10:58:11;13.90;99.90
16301;DHT22;8258;51.020;4.248;2023-04-24T11:00:41;14.00;99.90
16301;DHT22;8258;51.020;4.248;2023-04-24T11:03:22;13.60;99.90
16301;DHT22;8258;51.020;4.248;2023-04-24T11:05:56;13.30;99.90
16301;DHT22;8258;51.020;4.248;2023-04-24T11:08:25;12.80;99.90
16301;DHT22;8258;51.020;4.248;2023-04-24T11:11:03;12.90;99.90
16301;DHT22;8258;51.020;4.248;2023-04-24T11:14:05;13.20;99.90
16301;DHT22;8258;51.020;4.248;2023-04-24T11:16:35;13.90;99.90
16301;DHT22;8258;51.020;4.248;2023-04-24T11:19:05;14.70;99.90
16301;DHT22;8258;51.020;4.248;2023-04-24T11:21:41;15.10;99.90
16301;DHT22;8258;51.020;4.248;2023-04-24T11:24:29;15.50;99.90
16301;DHT22;8258;51.020;4.248;2023-04-24T11:26:58;16.10;99.90
16301;DHT22;8258;51.020;4.248;2023-04-24T11:29:39;15.70;99.90
16301;DHT22;8258;51.020;4.248;2023-04-24T11:32:17;15.70;99.90
16301;DHT22;8258;51.020;4.248;2023-04-24T11:34:46;15.60;99.90
16301;DHT22;8258;51.020;4.248;2023-04-24T11:37:15;15.00;99.90
16301;DHT22;8258;51.020;4.248;2023-04-24T11:39:42;14.80;99.90
16301;DHT22;8258;51.020;4.248;2023-04-24T11:42:09;14.80;99.90
16301;DHT22;8258;51.020;4.248;2023-04-24T11:44:36;14.60;99.90
16301;DHT22;8258;51.020;4.248;2023-04-24T11:47:04;14.10;99.90
16301;DHT22;8258;51.020;4.248;2023-04-24T11:49:32;13.80;99.90
16301;DHT22;8258;51.020;4.248;2023-04-24T11:52:00;13.80;99.90
16301;DHT22;8258;51.020;4.248;2023-04-24T11:54:28;13.70;99.90
16301;DHT22;8258;51.020;4.248;2023-04-24T11:56:56;13.50;99.90
16301;DHT22;8258;51.020;4.248;2023-04-24T11:59:23;13.60;99.90
16301;DHT22;8258;51.020;4.248;2023-04-24T12:01:50;14.40;99.90
16301;DHT22;8258;51.020;4.248;2023-04-24T12:04:17;14.50;99.90
16301;DHT22;8258;51.020;4.248;2023-04-24T12:07:00;14.40;99.90
16301;DHT22;8258;51.020;4.248;2023-04-24T12:09:28;14.00;99.90
16301;DHT22;8258;51.020;4.248;2023-04-24T12:11:57;14.00;99.90
16301;DHT22;8258;51.020;4.248;2023-04-24T12:14:24;14.10;99.90
16301;DHT22;8258;51.020;4.248;2023-04-24T12:16:51;14.50;99.90
16301;DHT22;8258;51.020;4.248;2023-04-24T12:19:20;14.20;99.90
16301;DHT22;8258;51.020;4.248;2023-04-24T12:21:59;13.80;99.90
16301;DHT22;8258;51.020;4.248;2023-04-24T12:24:28;13.90;99.90
16301;DHT22;8258;51.020;4.248;2023-04-24T12:26:55;14.10;99.90
16301;DHT22;8258;51.020;4.248;2023-04-24T12:29:23;14.20;99.90
16301;DHT22;8258;51.020;4.248;2023-04-24T12:31:51;15.70;99.90
16301;DHT22;8258;51.020;4.248;2023-04-24T12:34:18;17.40;99.90
16301;DHT22;8258;51.020;4.248;2023-04-24T12:36:45;17.80;99.90
16301;DHT22;8258;51.020;4.248;2023-04-24T12:39:15;16.70;99.90
16301;DHT22;8258;51.020;4.248;2023-04-24T12:41:54;16.30;99.90
16301;DHT22;8258;51.020;4.248;2023-04-24T12:44:29;16.40;99.90
16301;DHT22;8258;51.020;4.248;2023-04-24T12:46:57;17.50;99.90
16301;DHT22;8258;51.020;4.248;2023-04-24T12:49:24;18.10;99.90
16301;DHT22;8258;51.020;4.248;2023-04-24T12:51:51;17.80;99.90
16301;DHT22;8258;51.020;4.248;2023-04-24T12:54:18;17.80;99.90
16301;DHT22;8258;51.020;4.248;2023-04-24T12:56:45;16.70;99.90
16301;DHT22;8258;51.020;4.248;2023-04-24T12:59:13;16.00;99.90
16301;DHT22;8258;51.020;4.248;2023-04-24T13:01:41;15.70;99.90
16301;DHT22;8258;51.020;4.248;2023-04-24T13:04:08;15.80;99.90
16301;DHT22;8258;51.020;4.248;2023-04-24T13:06:35;15.70;99.90
16301;DHT22;8258;51.020;4.248;2023-04-24T13:09:02;16.70;99.90
16301;DHT22;8258;51.020;4.248;2023-04-24T13:11:29;18.00;99.90
16301;DHT22;8258;51.020;4.248;2023-04-24T13:13:56;18.40;99.90
16301;DHT22;8258;51.020;4.248;2023-04-24T13:16:25;18.60;99.20
16301;DHT22;8258;51.020;4.248;2023-04-24T13:18:52;19.20;98.50
16301;DHT22;8258;51.020;4.248;2023-04-24T13:21:19;18.90;96.30
16301;DHT22;8258;51.020;4.248;2023-04-24T13:23:46;18.80;97.40
16301;DHT22;8258;51.020;4.248;2023-04-24T13:26:13;19.80;96.10
16301;DHT22;8258;51.020;4.248;2023-04-24T13:28:39;21.40;92.40
16301;DHT22;8258;51.020;4.248;2023-04-24T13:31:06;20.90;88.50
16301;DHT22;8258;51.020;4.248;2023-04-24T13:33:35;20.60;90.80
16301;DHT22;8258;51.020;4.248;2023-04-24T13:36:02;21.20;88.10
16301;DHT22;8258;51.020;4.248;2023-04-24T13:38:29;20.90;90.40
16301;DHT22;8258;51.020;4.248;2023-04-24T13:40:56;20.70;87.80
16301;DHT22;8258;51.020;4.248;2023-04-24T13:43:23;19.70;88.70
16301;DHT22;8258;51.020;4.248;2023-04-24T13:45:50;19.80;92.50
16301;DHT22;8258;51.020;4.248;2023-04-24T13:48:17;20.30;90.20
16301;DHT22;8258;51.020;4.248;2023-04-24T13:50:45;21.80;90.80
16301;DHT22;8258;51.020;4.248;2023-04-24T13:53:13;22.40;85.70
16301;DHT22;8258;51.020;4.248;2023-04-24T13:55:40;23.30;82.80
16301;DHT22;8258;51.020;4.248;2023-04-24T13:58:07;22.90;77.80
16301;DHT22;8258;51.020;4.248;2023-04-24T14:00:34;22.80;79.00
16301;DHT22;8258;51.020;4.248;2023-04-24T14:03:01;21.20;80.60
16301;DHT22;8258;51.020;4.248;2023-04-24T14:05:28;21.50;81.00
16301;DHT22;8258;51.020;4.248;2023-04-24T14:07:56;19.60;84.00
16301;DHT22;8258;51.020;4.248;2023-04-24T14:10:23;20.00;88.90
16301;DHT22;8258;51.020;4.248;2023-04-24T14:12:51;21.10;84.60
16301;DHT22;8258;51.020;4.248;2023-04-24T14:15:18;21.30;80.40
16301;DHT22;8258;51.020;4.248;2023-04-24T14:17:45;20.40;80.10
16301;DHT22;8258;51.020;4.248;2023-04-24T14:20:12;19.50;84.70
16301;DHT22;8258;51.020;4.248;2023-04-24T14:22:39;20.50;78.50
16301;DHT22;8258;51.020;4.248;2023-04-24T14:25:08;20.20;84.30
16301;DHT22;8258;51.020;4.248;2023-04-24T14:27:35;20.90;79.70
16301;DHT22;8258;51.020;4.248;2023-04-24T14:30:03;21.40;74.20
16301;DHT22;8258;51.020;4.248;2023-04-24T14:32:30;21.30;75.50
16301;DHT22;8258;51.020;4.248;2023-04-24T14:34:57;20.40;77.50
16301;DHT22;8258;51.020;4.248;2023-04-24T14:37:24;18.60;81.80
16301;DHT22;8258;51.020;4.248;2023-04-24T14:39:51;18.70;86.90
16301;DHT22;8258;51.020;4.248;2023-04-24T14:42:19;18.00;87.50
16301;DHT22;8258;51.020;4.248;2023-04-24T14:44:46;16.90;91.00
16301;DHT22;8258;51.020;4.248;2023-04-24T14:47:13;16.10;95.40
16301;DHT22;8258;51.020;4.248;2023-04-24T14:49:40;15.70;97.50
16301;DHT22;8258;51.020;4.248;2023-04-24T14:52:07;15.00;99.90
16301;DHT22;8258;51.020;4.248;2023-04-24T14:54:34;15.00;99.90
16301;DHT22;8258;51.020;4.248;2023-04-24T14:57:01;14.50;99.90
16301;DHT22;8258;51.020;4.248;2023-04-24T14:59:29;14.50;99.90
16301;DHT22;8258;51.020;4.248;2023-04-24T15:01:56;14.10;99.90
16301;DHT22;8258;51.020;4.248;2023-04-24T15:04:24;14.40;99.90
16301;DHT22;8258;51.020;4.248;2023-04-24T15:06:51;15.00;99.90
16301;DHT22;8258;51.020;4.248;2023-04-24T15:09:19;14.90;99.90
16301;DHT22;8258;51.020;4.248;2023-04-24T15:11:47;14.40;99.90
16301;DHT22;8258;51.020;4.248;2023-04-24T15:14:15;14.10;99.90
16301;DHT22;8258;51.020;4.248;2023-04-24T15:16:43;14.30;99.90
16301;DHT22;8258;51.020;4.248;2023-04-24T15:19:10;14.50;99.90
16301;DHT22;8258;51.020;4.248;2023-04-24T15:21:37;14.70;99.90
16301;DHT22;8258;51.020;4.248;2023-04-24T15:24:06;14.60;99.90
16301;DHT22;8258;51.020;4.248;2023-04-24T15:26:33;14.60;99.90
16301;DHT22;8258;51.020;4.248;2023-04-24T15:28:59;14.40;99.90
16301;DHT22;8258;51.020;4.248;2023-04-24T15:31:26;14.50;99.90
16301;DHT22;8258;51.020;4.248;2023-04-24T15:33:55;14.30;99.90
16301;DHT22;8258;51.020;4.248;2023-04-24T15:36:22;14.30;99.90
16301;DHT22;8258;51.020;4.248;2023-04-24T15:38:49;14.00;99.90
16301;DHT22;8258;51.020;4.248;2023-04-24T15:41:16;14.20;99.90
16301;DHT22;8258;51.020;4.248;2023-04-24T15:43:43;13.80;99.90
16301;DHT22;8258;51.020;4.248;2023-04-24T15:46:10;13.60;99.90
16301;DHT22;8258;51.020;4.248;2023-04-24T15:48:37;13.40;99.90
16301;DHT22;8258;51.020;4.248;2023-04-24T15:51:08;13.10;99.90
16301;DHT22;8258;51.020;4.248;2023-04-24T15:53:35;12.90;99.90
16301;DHT22;8258;51.020;4.248;2023-04-24T15:56:02;13.10;99.90